sensor_id;sensor_type;location;lat;lon;timestamp;temperature;humidity
10231;DHT22;62604;49.432;8.680;2023-08-17T00:00:36;18.90;99.90
10231;DHT22;62604;49.432;8.680;2023-08-17T00:03:06;18.90;99.90
10231;DHT22;62604;49.432;8.680;2023-08-17T00:05:33;19.00;99.90
10231;DHT22;62604;49.432;8.680;2023-08-17T00:08:00;18.90;99.90
10231;DHT22;62604;49.432;8.680;2023-08-17T00:10:28;18.90;99.90
10231;DHT22;62604;49.432;8.680;2023-08-17T00:13:01;18.90;99.90
10231;DHT22;62604;49.432;8.680;2023-08-17T00:15:29;18.90;99.90
10231;DHT22;62604;49.432;8.680;2023-08-17T00:18:02;18.90;99.90
10231;DHT22;62604;49.432;8.680;2023-08-17T00:20:29;18.90;99.90
10231;DHT22;62604;49.432;8.680;2023-08-17T00:22:56;18.80;99.90
10231;DHT22;62604;49.432;8.680;2023-08-17T00:25:25;18.80;99.90
10231;DHT22;62604;49.432;8.680;2023-08-17T00:27:51;18.80;99.90
10231;DHT22;62604;49.432;8.680;2023-08-17T00:30:20;18.70;99.90
10231;DHT22;62604;49.432;8.680;2023-08-17T00:32:47;18.70;99.90
10231;DHT22;62604;49.432;8.680;2023-08-17T00:35:14;18.70;99.90
10231;DHT22;62604;49.432;8.680;2023-08-17T00:37:41;18.70;99.90
10231;DHT22;62604;49.432;8.680;2023-08-17T00:40:09;18.70;99.90
10231;DHT22;62604;49.432;8.680;2023-08-17T00:42:36;18.80;99.90
10231;DHT22;62604;49.432;8.680;2023-08-17T00:45:03;18.80;99.90
10231;DHT22;62604;49.432;8.680;2023-08-17T00:47:35;18.80;99.90
10231;DHT22;62604;49.432;8.680;2023-08-17T00:50:04;18.80;99.90
10231;DHT22;62604;49.432;8.680;2023-08-17T00:52:32;18.80;99.90
10231;DHT22;62604;49.432;8.680;2023-08-17T00:55:00;18.70;99.90
10231;DHT22;62604;49.432;8.680;2023-08-17T00:57:27;18.70;99.90
10231;DHT22;62604;49.432;8.680;2023-08-17T00:59:55;18.70;99.90
10231;DHT22;62604;49.432;8.680;2023-08-17T01:02:21;18.70;99.90
10231;DHT22;62604;49.432;8.680;2023-08-17T01:04:50;18.60;99.90
10231;DHT22;62604;49.432;8.680;2023-08-17T01:07:17;18.60;99.90
10231;DHT22;62604;49.432;8.680;2023-08-17T01:09:44;18.50;99.90
10231;DHT22;62604;49.432;8.680;2023-08-17T01:12:21;18.50;99.90
10231;DHT22;62604;49.432;8.680;2023-08-17T01:14:55;18.50;99.90
10231;DHT22;62604;49.432;8.680;2023-08-17T01:17:28;18.40;99.90
10231;DHT22;62604;49.432;8.680;2023-08-17T01:19:57;18.40;99.90
10231;DHT22;62604;49.432;8.680;2023-08-17T01:22:26;18.30;99.90
10231;DHT22;62604;49.432;8.680;2023-08-17T01:25:01;18.30;99.90
10231;DHT22;62604;49.432;8.680;2023-08-17T01:27:38;18.30;99.90
10231;DHT22;62604;49.432;8.680;2023-08-17T01:30:07;18.30;99.90
10231;DHT22;62604;49.432;8.680;2023-08-17T01:32:39;18.30;99.90
10231;DHT22;62604;49.432;8.680;2023-08-17T01:35:14;18.30;99.90
10231;DHT22;62604;49.432;8.680;2023-08-17T01:37:44;18.20;99.90
10231;DHT22;62604;49.432;8.680;2023-08-17T01:40:14;18.20;99.90
10231;DHT22;62604;49.432;8.680;2023-08-17T01:42:42;18.20;99.90
10231;DHT22;62604;49.432;8.680;2023-08-17T01:45:11;18.20;99.90
10231;DHT22;62604;49.432;8.680;2023-08-17T01:47:38;18.20;99.90
10231;DHT22;62604;49.432;8.680;2023-08-17T01:50:07;18.20;99.90
10231;DHT22;62604;49.432;8.680;2023-08-17T01:52:35;18.20;99.90
10231;DHT22;62604;49.432;8.680;2023-08-17T01:55:03;18.20;99.90
10231;DHT22;62604;49.432;8.680;2023-08-17T01:57:31;18.20;99.90
10231;DHT22;62604;49.432;8.680;2023-08-17T01:59:59;18.10;99.90
10231;DHT22;62604;49.432;8.680;2023-08-17T02:02:27;18.10;99.90
10231;DHT22;62604;49.432;8.680;2023-08-17T02:04:55;18.10;99.90
10231;DHT22;62604;49.432;8.680;2023-08-17T02:07:26;18.10;99.90
10231;DHT22;62604;49.432;8.680;2023-08-17T02:10:02;18.10;99.90
10231;DHT22;62604;49.432;8.680;2023-08-17T02:12:31;18.00;99.90
10231;DHT22;62604;49.432;8.680;2023-08-17T02:15:00;18.00;99.90
10231;DHT22;62604;49.432;8.680;2023-08-17T02:17:27;18.00;99.90
10231;DHT22;62604;49.432;8.680;2023-08-17T02:19:53;17.90;99.90
10231;DHT22;62604;49.432;8.680;2023-08-17T02:22:22;17.90;99.90
10231;DHT22;62604;49.432;8.680;2023-08-17T02:24:51;17.90;99.90
10231;DHT22;62604;49.432;8.680;2023-08-17T02:27:17;17.90;99.90
10231;DHT22;62604;49.432;8.680;2023-08-17T02:29:46;17.80;99.90
10231;DHT22;62604;49.432;8.680;2023-08-17T02:32:12;17.80;99.90
10231;DHT22;62604;49.432;8.680;2023-08-17T02:34:44;17.80;99.90
10231;DHT22;62604;49.432;8.680;2023-08-17T02:37:13;17.80;99.90
10231;DHT22;62604;49.432;8.680;2023-08-17T02:39:41;17.80;99.90
10231;DHT22;62604;49.432;8.680;2023-08-17T02:42:09;17.80;99.90
10231;DHT22;62604;49.432;8.680;2023-08-17T02:44:36;17.90;99.90
10231;DHT22;62604;49.432;8.680;2023-08-17T02:47:05;17.80;99.90
10231;DHT22;62604;49.432;8.680;2023-08-17T02:49:32;17.80;99.90
10231;DHT22;62604;49.432;8.680;2023-08-17T02:51:59;17.80;99.90
10231;DHT22;62604;49.432;8.680;2023-08-17T02:54:25;17.80;99.90
10231;DHT22;62604;49.432;8.680;2023-08-17T02:56:52;17.80;99.90
10231;DHT22;62604;49.432;8.680;2023-08-17T02:59:19;17.80;99.90
10231;DHT22;62604;49.432;8.680;2023-08-17T03:01:46;17.70;99.90
10231;DHT22;62604;49.432;8.680;2023-08-17T03:04:14;17.70;99.90
10231;DHT22;62604;49.432;8.680;2023-08-17T03:06:41;17.70;99.90
10231;DHT22;62604;49.432;8.680;2023-08-17T03:09:14;17.70;99.90
10231;DHT22;62604;49.432;8.680;2023-08-17T03:11:43;17.70;99.90
10231;DHT22;62604;49.432;8.680;2023-08-17T03:14:10;17.70;99.90
10231;DHT22;62604;49.432;8.680;2023-08-17T03:16:36;17.60;99.90
10231;DHT22;62604;49.432;8.680;2023-08-17T03:19:04;17.60;99.90
10231;DHT22;62604;49.432;8.680;2023-08-17T03:21:34;17.60;99.90
10231;DHT22;62604;49.432;8.680;2023-08-17T03:24:01;17.60;99.90
10231;DHT22;62604;49.432;8.680;2023-08-17T03:26:28;17.60;99.90
10231;DHT22;62604;49.432;8.680;2023-08-17T03:28:55;17.60;99.90
10231;DHT22;62604;49.432;8.680;2023-08-17T03:31:22;17.50;99.90
10231;DHT22;62604;49.432;8.680;2023-08-17T03:33:49;17.50;99.90
10231;DHT22;62604;49.432;8.680;2023-08-17T03:36:16;17.50;99.90
10231;DHT22;62604;49.432;8.680;2023-08-17T03:38:44;17.50;99.90
10231;DHT22;62604;49.432;8.680;2023-08-17T03:41:11;17.50;99.90
10231;DHT22;62604;49.432;8.680;2023-08-17T03:43:39;17.50;99.90
10231;DHT22;62604;49.432;8.680;2023-08-17T03:46:07;17.50;99.90
10231;DHT22;62604;49.432;8.680;2023-08-17T03:48:34;17.50;99.90
10231;DHT22;62604;49.432;8.680;2023-08-17T03:51:01;17.50;99.90
10231;DHT22;62604;49.432;8.680;2023-08-17T03:53:29;17.50;99.90
10231;DHT22;62604;49.432;8.680;2023-08-17T03:55:57;17.50;99.90
10231;DHT22;62604;49.432;8.680;2023-08-17T03:58:24;17.50;99.90
10231;DHT22;62604;49.432;8.680;2023-08-17T04:00:53;17.50;99.90
10231;DHT22;62604;49.432;8.680;2023-08-17T04:03:20;17.40;99.90
10231;DHT22;62604;49.432;8.680;2023-08-17T04:05:47;17.40;99.90
10231;DHT22;62604;49.432;8.680;2023-08-17T04:08:16;17.40;99.90
10231;DHT22;62604;49.432;8.680;2023-08-17T04:10:45;17.30;99.90
10231;DHT22;62604;49.432;8.680;2023-08-17T04:13:13;17.30;99.90
10231;DHT22;62604;49.432;8.680;2023-08-17T04:15:40;17.20;99.90
10231;DHT22;62604;49.432;8.680;2023-08-17T04:18:07;17.30;99.90
10231;DHT22;62604;49.432;8.680;2023-08-17T04:20:34;17.20;99.90
10231;DHT22;62604;49.432;8.680;2023-08-17T04:23:00;17.30;99.90
10231;DHT22;62604;49.432;8.680;2023-08-17T04:25:28;17.30;99.90
10231;DHT22;62604;49.432;8.680;2023-08-17T04:27:55;17.30;99.90
10231;DHT22;62604;49.432;8.680;2023-08-17T04:30:26;17.30;99.90
10231;DHT22;62604;49.432;8.680;2023-08-17T04:32:59;17.30;99.90
10231;DHT22;62604;49.432;8.680;2023-08-17T04:35:26;17.30;99.90
10231;DHT22;62604;49.432;8.680;2023-08-17T04:37:52;17.30;99.90
10231;DHT22;62604;49.432;8.680;2023-08-17T04:40:19;17.30;99.90
10231;DHT22;62604;49.432;8.680;2023-08-17T04:42:46;17.30;99.90
10231;DHT22;62604;49.432;8.680;2023-08-17T04:45:14;17.30;99.90
10231;DHT22;62604;49.432;8.680;2023-08-17T04:47:42;17.30;99.90
10231;DHT22;62604;49.432;8.680;2023-08-17T04:50:11;17.30;99.90
10231;DHT22;62604;49.432;8.680;2023-08-17T04:52:42;17.40;99.90
10231;DHT22;62604;49.432;8.680;2023-08-17T04:55:09;17.40;99.90
10231;DHT22;62604;49.432;8.680;2023-08-17T04:57:36;17.40;99.90
10231;DHT22;62604;49.432;8.680;2023-08-17T05:00:05;17.40;99.90
10231;DHT22;62604;49.432;8.680;2023-08-17T05:02:35;17.40;99.90
10231;DHT22;62604;49.432;8.680;2023-08-17T05:05:07;17.40;99.90
10231;DHT22;62604;49.432;8.680;2023-08-17T05:07:34;17.40;99.90
10231;DHT22;62604;49.432;8.680;2023-08-17T05:10:01;17.30;99.90
10231;DHT22;62604;49.432;8.680;2023-08-17T05:12:51;17.30;99.90
10231;DHT22;62604;49.432;8.680;2023-08-17T05:15:31;17.30;99.90
10231;DHT22;62604;49.432;8.680;2023-08-17T05:17:59;17.40;99.90
10231;DHT22;62604;49.432;8.680;2023-08-17T05:20:29;17.50;99.90
10231;DHT22;62604;49.432;8.680;2023-08-17T05:23:05;17.50;99.90
10231;DHT22;62604;49.432;8.680;2023-08-17T05:25:34;17.60;99.90
10231;DHT22;62604;49.432;8.680;2023-08-17T05:28:02;17.50;99.90
10231;DHT22;62604;49.432;8.680;2023-08-17T05:30:29;17.50;99.90
10231;DHT22;62604;49.432;8.680;2023-08-17T05:32:56;17.60;99.90
10231;DHT22;62604;49.432;8.680;2023-08-17T05:35:23;17.70;99.90
10231;DHT22;62604;49.432;8.680;2023-08-17T05:37:51;17.80;99.90
10231;DHT22;62604;49.432;8.680;2023-08-17T05:40:18;17.80;99.90
10231;DHT22;62604;49.432;8.680;2023-08-17T05:42:45;17.90;99.90
10231;DHT22;62604;49.432;8.680;2023-08-17T05:45:12;18.10;99.90
10231;DHT22;62604;49.432;8.680;2023-08-17T05:47:39;18.00;99.90
10231;DHT22;62604;49.432;8.680;2023-08-17T05:50:08;18.10;99.90
10231;DHT22;62604;49.432;8.680;2023-08-17T05:52:35;18.20;99.90
10231;DHT22;62604;49.432;8.680;2023-08-17T05:55:06;18.10;99.90
10231;DHT22;62604;49.432;8.680;2023-08-17T05:57:33;18.20;99.90
10231;DHT22;62604;49.432;8.680;2023-08-17T06:00:00;18.20;99.90
10231;DHT22;62604;49.432;8.680;2023-08-17T06:02:27;18.00;99.90
10231;DHT22;62604;49.432;8.680;2023-08-17T06:04:54;18.20;99.90
10231;DHT22;62604;49.432;8.680;2023-08-17T06:07:21;18.40;99.90
10231;DHT22;62604;49.432;8.680;2023-08-17T06:09:48;18.50;99.90
10231;DHT22;62604;49.432;8.680;2023-08-17T06:12:16;18.50;99.90
10231;DHT22;62604;49.432;8.680;2023-08-17T06:14:44;18.50;99.90
10231;DHT22;62604;49.432;8.680;2023-08-17T06:17:12;18.50;99.90
10231;DHT22;62604;49.432;8.680;2023-08-17T06:19:38;18.60;99.90
10231;DHT22;62604;49.432;8.680;2023-08-17T06:22:06;18.60;99.90
10231;DHT22;62604;49.432;8.680;2023-08-17T06:24:33;18.70;99.90
10231;DHT22;62604;49.432;8.680;2023-08-17T06:27:00;18.60;99.90
10231;DHT22;62604;49.432;8.680;2023-08-17T06:29:28;18.60;99.90
10231;DHT22;62604;49.432;8.680;2023-08-17T06:31:55;18.70;99.90
10231;DHT22;62604;49.432;8.680;2023-08-17T06:34:22;18.90;99.90
10231;DHT22;62604;49.432;8.680;2023-08-17T06:36:59;18.90;99.90
10231;DHT22;62604;49.432;8.680;2023-08-17T06:39:28;18.60;99.90
10231;DHT22;62604;49.432;8.680;2023-08-17T06:41:55;18.50;99.90
10231;DHT22;62604;49.432;8.680;2023-08-17T06:44:22;18.60;99.90
10231;DHT22;62604;49.432;8.680;2023-08-17T06:46:50;18.70;99.90
10231;DHT22;62604;49.432;8.680;2023-08-17T06:49:17;18.70;99.90
10231;DHT22;62604;49.432;8.680;2023-08-17T06:51:44;18.70;99.90
10231;DHT22;62604;49.432;8.680;2023-08-17T06:54:11;18.80;99.90
10231;DHT22;62604;49.432;8.680;2023-08-17T06:56:38;18.80;99.90
10231;DHT22;62604;49.432;8.680;2023-08-17T06:59:05;18.90;99.90
10231;DHT22;62604;49.432;8.680;2023-08-17T07:01:32;18.90;99.90
10231;DHT22;62604;49.432;8.680;2023-08-17T07:04:00;19.00;99.90
10231;DHT22;62604;49.432;8.680;2023-08-17T07:06:27;19.00;99.90
10231;DHT22;62604;49.432;8.680;2023-08-17T07:08:54;19.10;99.90
10231;DHT22;62604;49.432;8.680;2023-08-17T07:11:22;19.20;99.90
10231;DHT22;62604;49.432;8.680;2023-08-17T07:13:49;19.30;99.90
10231;DHT22;62604;49.432;8.680;2023-08-17T07:16:16;19.50;99.90
10231;DHT22;62604;49.432;8.680;2023-08-17T07:18:43;19.70;99.90
10231;DHT22;62604;49.432;8.680;2023-08-17T07:21:12;19.80;99.90
10231;DHT22;62604;49.432;8.680;2023-08-17T07:23:44;19.60;99.90
10231;DHT22;62604;49.432;8.680;2023-08-17T07:26:11;19.90;99.90
10231;DHT22;62604;49.432;8.680;2023-08-17T07:28:38;20.00;99.90
10231;DHT22;62604;49.432;8.680;2023-08-17T07:31:05;20.10;99.90
10231;DHT22;62604;49.432;8.680;2023-08-17T07:33:32;19.90;99.90
10231;DHT22;62604;49.432;8.680;2023-08-17T07:35:59;20.10;99.90
10231;DHT22;62604;49.432;8.680;2023-08-17T07:38:27;20.10;99.90
10231;DHT22;62604;49.432;8.680;2023-08-17T07:40:54;20.20;99.90
10231;DHT22;62604;49.432;8.680;2023-08-17T07:43:21;20.10;99.90
10231;DHT22;62604;49.432;8.680;2023-08-17T07:45:53;20.10;99.90
10231;DHT22;62604;49.432;8.680;2023-08-17T07:48:20;20.10;99.90
10231;DHT22;62604;49.432;8.680;2023-08-17T07:50:49;20.10;99.90
10231;DHT22;62604;49.432;8.680;2023-08-17T07:53:16;20.30;99.90
10231;DHT22;62604;49.432;8.680;2023-08-17T07:55:44;20.60;99.90
10231;DHT22;62604;49.432;8.680;2023-08-17T07:58:12;20.70;99.90
10231;DHT22;62604;49.432;8.680;2023-08-17T08:00:39;20.80;99.90
10231;DHT22;62604;49.432;8.680;2023-08-17T08:03:06;21.00;99.90
10231;DHT22;62604;49.432;8.680;2023-08-17T08:05:33;21.10;99.90
10231;DHT22;62604;49.432;8.680;2023-08-17T08:08:00;21.20;99.90
10231;DHT22;62604;49.432;8.680;2023-08-17T08:10:27;21.30;99.90
10231;DHT22;62604;49.432;8.680;2023-08-17T08:12:56;21.30;99.90
10231;DHT22;62604;49.432;8.680;2023-08-17T08:15:23;21.30;99.90
10231;DHT22;62604;49.432;8.680;2023-08-17T08:17:50;21.30;99.90
10231;DHT22;62604;49.432;8.680;2023-08-17T08:20:17;21.40;99.90
10231;DHT22;62604;49.432;8.680;2023-08-17T08:22:44;21.40;99.90
10231;DHT22;62604;49.432;8.680;2023-08-17T08:25:12;21.40;99.90
10231;DHT22;62604;49.432;8.680;2023-08-17T08:27:40;21.30;99.90
10231;DHT22;62604;49.432;8.680;2023-08-17T08:30:09;21.00;99.90
10231;DHT22;62604;49.432;8.680;2023-08-17T08:32:36;20.50;99.90
10231;DHT22;62604;49.432;8.680;2023-08-17T08:35:04;20.60;99.90
10231;DHT22;62604;49.432;8.680;2023-08-17T08:37:31;20.80;99.90
10231;DHT22;62604;49.432;8.680;2023-08-17T08:39:58;21.00;99.90
10231;DHT22;62604;49.432;8.680;2023-08-17T08:42:25;21.20;99.90
10231;DHT22;62604;49.432;8.680;2023-08-17T08:44:52;21.50;99.90
10231;DHT22;62604;49.432;8.680;2023-08-17T08:47:21;22.00;99.90
10231;DHT22;62604;49.432;8.680;2023-08-17T08:49:54;22.90;99.90
10231;DHT22;62604;49.432;8.680;2023-08-17T08:52:23;24.20;99.90
10231;DHT22;62604;49.432;8.680;2023-08-17T08:54:54;26.00;95.50
10231;DHT22;62604;49.432;8.680;2023-08-17T08:57:24;26.90;84.60
10231;DHT22;62604;49.432;8.680;2023-08-17T08:59:51;26.70;83.80
10231;DHT22;62604;49.432;8.680;2023-08-17T09:02:20;27.20;82.20
10231;DHT22;62604;49.432;8.680;2023-08-17T09:04:47;27.90;78.80
10231;DHT22;62604;49.432;8.680;2023-08-17T09:07:14;28.30;74.80
10231;DHT22;62604;49.432;8.680;2023-08-17T09:09:41;28.50;72.70
10231;DHT22;62604;49.432;8.680;2023-08-17T09:12:08;28.70;70.30
10231;DHT22;62604;49.432;8.680;2023-08-17T09:14:36;28.30;70.50
10231;DHT22;62604;49.432;8.680;2023-08-17T09:17:03;29.40;69.30
10231;DHT22;62604;49.432;8.680;2023-08-17T09:19:33;29.80;64.40
10231;DHT22;62604;49.432;8.680;2023-08-17T09:22:00;28.80;65.00
10231;DHT22;62604;49.432;8.680;2023-08-17T09:24:34;29.10;67.60
10231;DHT22;62604;49.432;8.680;2023-08-17T09:27:02;29.90;64.00
10231;DHT22;62604;49.432;8.680;2023-08-17T09:29:30;30.60;62.00
10231;DHT22;62604;49.432;8.680;2023-08-17T09:32:05;30.00;60.00
10231;DHT22;62604;49.432;8.680;2023-08-17T09:34:33;30.00;61.60
10231;DHT22;62604;49.432;8.680;2023-08-17T09:37:02;30.50;60.20
10231;DHT22;62604;49.432;8.680;2023-08-17T09:39:30;30.60;60.00
10231;DHT22;62604;49.432;8.680;2023-08-17T09:41:57;30.50;60.00
10231;DHT22;62604;49.432;8.680;2023-08-17T09:44:24;30.90;59.10
10231;DHT22;62604;49.432;8.680;2023-08-17T09:46:51;31.10;57.60
10231;DHT22;62604;49.432;8.680;2023-08-17T09:49:18;30.70;58.70
10231;DHT22;62604;49.432;8.680;2023-08-17T09:51:46;30.40;59.70
10231;DHT22;62604;49.432;8.680;2023-08-17T09:54:21;31.40;57.90
10231;DHT22;62604;49.432;8.680;2023-08-17T09:56:50;31.60;56.70
10231;DHT22;62604;49.432;8.680;2023-08-17T09:59:18;30.50;57.80
10231;DHT22;62604;49.432;8.680;2023-08-17T10:01:47;31.50;55.30
10231;DHT22;62604;49.432;8.680;2023-08-17T10:04:17;31.80;55.80
10231;DHT22;62604;49.432;8.680;2023-08-17T10:06:50;31.80;54.10
10231;DHT22;62604;49.432;8.680;2023-08-17T10:09:23;31.90;51.80
10231;DHT22;62604;49.432;8.680;2023-08-17T10:11:52;30.60;52.40
10231;DHT22;62604;49.432;8.680;2023-08-17T10:14:26;30.10;55.90
10231;DHT22;62604;49.432;8.680;2023-08-17T10:17:00;29.60;58.50
10231;DHT22;62604;49.432;8.680;2023-08-17T10:19:33;29.90;56.20
10231;DHT22;62604;49.432;8.680;2023-08-17T10:22:08;30.50;56.60
10231;DHT22;62604;49.432;8.680;2023-08-17T10:24:38;30.40;56.30
10231;DHT22;62604;49.432;8.680;2023-08-17T10:27:06;30.00;59.00
10231;DHT22;62604;49.432;8.680;2023-08-17T10:29:33;31.20;56.50
10231;DHT22;62604;49.432;8.680;2023-08-17T10:32:01;31.60;55.90
10231;DHT22;62604;49.432;8.680;2023-08-17T10:34:29;31.80;55.60
10231;DHT22;62604;49.432;8.680;2023-08-17T10:36:56;32.00;53.40
10231;DHT22;62604;49.432;8.680;2023-08-17T10:39:30;32.10;52.60
10231;DHT22;62604;49.432;8.680;2023-08-17T10:41:59;32.60;53.00
10231;DHT22;62604;49.432;8.680;2023-08-17T10:44:40;32.00;52.00
10231;DHT22;62604;49.432;8.680;2023-08-17T10:47:20;32.40;51.70
10231;DHT22;62604;49.432;8.680;2023-08-17T10:49:48;32.20;52.10
10231;DHT22;62604;49.432;8.680;2023-08-17T10:52:28;32.10;52.70
10231;DHT22;62604;49.432;8.680;2023-08-17T10:55:00;32.30;52.20
10231;DHT22;62604;49.432;8.680;2023-08-17T10:57:31;32.60;50.60
10231;DHT22;62604;49.432;8.680;2023-08-17T11:00:17;33.20;50.70
10231;DHT22;62604;49.432;8.680;2023-08-17T11:02:55;32.90;51.00
10231;DHT22;62604;49.432;8.680;2023-08-17T11:05:45;32.90;48.90
10231;DHT22;62604;49.432;8.680;2023-08-17T11:08:20;33.10;49.10
10231;DHT22;62604;49.432;8.680;2023-08-17T11:10:58;33.60;49.20
10231;DHT22;62604;49.432;8.680;2023-08-17T11:13:27;33.30;49.30
10231;DHT22;62604;49.432;8.680;2023-08-17T11:15:57;32.90;47.20
10231;DHT22;62604;49.432;8.680;2023-08-17T11:18:25;33.70;49.40
10231;DHT22;62604;49.432;8.680;2023-08-17T11:20:53;33.20;47.70
10231;DHT22;62604;49.432;8.680;2023-08-17T11:23:21;32.90;49.60
10231;DHT22;62604;49.432;8.680;2023-08-17T11:25:52;32.20;50.60
10231;DHT22;62604;49.432;8.680;2023-08-17T11:28:19;31.20;50.00
10231;DHT22;62604;49.432;8.680;2023-08-17T11:30:46;30.90;53.20
10231;DHT22;62604;49.432;8.680;2023-08-17T11:33:22;30.70;54.30
10231;DHT22;62604;49.432;8.680;2023-08-17T11:35:49;31.10;54.60
10231;DHT22;62604;49.432;8.680;2023-08-17T11:38:16;32.00;53.10
10231;DHT22;62604;49.432;8.680;2023-08-17T11:40:43;32.40;52.10
10231;DHT22;62604;49.432;8.680;2023-08-17T11:43:11;31.80;52.90
10231;DHT22;62604;49.432;8.680;2023-08-17T11:45:39;32.90;50.80
10231;DHT22;62604;49.432;8.680;2023-08-17T11:48:07;33.30;49.00
10231;DHT22;62604;49.432;8.680;2023-08-17T11:50:35;33.50;48.50
10231;DHT22;62604;49.432;8.680;2023-08-17T11:53:02;33.60;48.10
10231;DHT22;62604;49.432;8.680;2023-08-17T11:55:30;33.50;48.10
10231;DHT22;62604;49.432;8.680;2023-08-17T11:57:59;33.70;48.10
10231;DHT22;62604;49.432;8.680;2023-08-17T12:00:27;34.20;47.20
10231;DHT22;62604;49.432;8.680;2023-08-17T12:02:54;32.70;49.30
10231;DHT22;62604;49.432;8.680;2023-08-17T12:05:22;32.90;48.90
10231;DHT22;62604;49.432;8.680;2023-08-17T12:07:49;32.10;50.50
10231;DHT22;62604;49.432;8.680;2023-08-17T12:10:17;31.40;52.20
10231;DHT22;62604;49.432;8.680;2023-08-17T12:12:46;30.80;54.40
10231;DHT22;62604;49.432;8.680;2023-08-17T12:15:13;30.20;55.90
10231;DHT22;62604;49.432;8.680;2023-08-17T12:17:45;29.60;58.30
10231;DHT22;62604;49.432;8.680;2023-08-17T12:20:16;29.10;61.30
10231;DHT22;62604;49.432;8.680;2023-08-17T12:22:44;29.10;61.80
10231;DHT22;62604;49.432;8.680;2023-08-17T12:25:11;28.80;62.40
10231;DHT22;62604;49.432;8.680;2023-08-17T12:27:38;28.60;64.40
10231;DHT22;62604;49.432;8.680;2023-08-17T12:30:11;28.50;64.80
10231;DHT22;62604;49.432;8.680;2023-08-17T12:32:38;28.30;65.90
10231;DHT22;62604;49.432;8.680;2023-08-17T12:35:08;28.30;67.20
10231;DHT22;62604;49.432;8.680;2023-08-17T12:37:35;28.10;68.20
10231;DHT22;62604;49.432;8.680;2023-08-17T12:40:02;28.00;69.10
10231;DHT22;62604;49.432;8.680;2023-08-17T12:42:30;27.80;69.80
10231;DHT22;62604;49.432;8.680;2023-08-17T12:44:57;27.90;69.20
10231;DHT22;62604;49.432;8.680;2023-08-17T12:47:24;27.60;69.00
10231;DHT22;62604;49.432;8.680;2023-08-17T12:49:51;27.40;70.90
10231;DHT22;62604;49.432;8.680;2023-08-17T12:52:19;27.30;71.00
10231;DHT22;62604;49.432;8.680;2023-08-17T12:54:46;27.50;71.90
10231;DHT22;62604;49.432;8.680;2023-08-17T12:57:13;27.60;71.00
10231;DHT22;62604;49.432;8.680;2023-08-17T12:59:40;27.70;71.60
10231;DHT22;62604;49.432;8.680;2023-08-17T13:02:07;27.60;70.40
10231;DHT22;62604;49.432;8.680;2023-08-17T13:04:34;28.00;69.30
10231;DHT22;62604;49.432;8.680;2023-08-17T13:07:02;28.40;69.70
10231;DHT22;62604;49.432;8.680;2023-08-17T13:09:30;28.30;69.00
10231;DHT22;62604;49.432;8.680;2023-08-17T13:11:57;28.00;67.50
10231;DHT22;62604;49.432;8.680;2023-08-17T13:14:25;28.60;65.60
10231;DHT22;62604;49.432;8.680;2023-08-17T13:16:52;28.20;67.70
10231;DHT22;62604;49.432;8.680;2023-08-17T13:19:19;27.80;67.50
10231;DHT22;62604;49.432;8.680;2023-08-17T13:21:46;28.50;68.90
10231;DHT22;62604;49.432;8.680;2023-08-17T13:24:13;28.20;66.30
10231;DHT22;62604;49.432;8.680;2023-08-17T13:26:41;28.50;68.60
10231;DHT22;62604;49.432;8.680;2023-08-17T13:29:08;28.80;66.90
10231;DHT22;62604;49.432;8.680;2023-08-17T13:31:35;28.70;67.50
10231;DHT22;62604;49.432;8.680;2023-08-17T13:34:02;28.70;69.20
10231;DHT22;62604;49.432;8.680;2023-08-17T13:36:30;28.80;67.90
10231;DHT22;62604;49.432;8.680;2023-08-17T13:38:56;28.10;68.90
10231;DHT22;62604;49.432;8.680;2023-08-17T13:41:23;27.70;71.30
10231;DHT22;62604;49.432;8.680;2023-08-17T13:43:52;27.30;72.70
10231;DHT22;62604;49.432;8.680;2023-08-17T13:46:19;27.60;74.90
10231;DHT22;62604;49.432;8.680;2023-08-17T13:48:46;27.70;74.40
10231;DHT22;62604;49.432;8.680;2023-08-17T13:51:13;27.50;74.00
10231;DHT22;62604;49.432;8.680;2023-08-17T13:53:40;27.30;75.00
10231;DHT22;62604;49.432;8.680;2023-08-17T13:56:07;27.40;77.50
10231;DHT22;62604;49.432;8.680;2023-08-17T13:58:34;27.60;77.80
10231;DHT22;62604;49.432;8.680;2023-08-17T14:01:02;28.00;76.10
10231;DHT22;62604;49.432;8.680;2023-08-17T14:03:29;28.20;75.80
10231;DHT22;62604;49.432;8.680;2023-08-17T14:05:56;28.40;73.00
10231;DHT22;62604;49.432;8.680;2023-08-17T14:08:23;28.30;71.50
10231;DHT22;62604;49.432;8.680;2023-08-17T14:10:50;28.50;71.20
10231;DHT22;62604;49.432;8.680;2023-08-17T14:13:17;29.00;70.50
10231;DHT22;62604;49.432;8.680;2023-08-17T14:15:44;29.20;68.80
10231;DHT22;62604;49.432;8.680;2023-08-17T14:18:12;29.30;68.20
10231;DHT22;62604;49.432;8.680;2023-08-17T14:20:39;29.40;70.90
10231;DHT22;62604;49.432;8.680;2023-08-17T14:23:06;29.10;70.30
10231;DHT22;62604;49.432;8.680;2023-08-17T14:25:33;29.30;70.90
10231;DHT22;62604;49.432;8.680;2023-08-17T14:28:04;29.60;69.60
10231;DHT22;62604;49.432;8.680;2023-08-17T14:30:31;29.50;70.40
10231;DHT22;62604;49.432;8.680;2023-08-17T14:32:57;29.60;71.80
10231;DHT22;62604;49.432;8.680;2023-08-17T14:35:26;30.00;71.10
10231;DHT22;62604;49.432;8.680;2023-08-17T14:37:53;30.40;69.20
10231;DHT22;62604;49.432;8.680;2023-08-17T14:40:23;30.50;68.10
10231;DHT22;62604;49.432;8.680;2023-08-17T14:42:50;30.10;67.50
10231;DHT22;62604;49.432;8.680;2023-08-17T14:45:17;30.10;67.20
10231;DHT22;62604;49.432;8.680;2023-08-17T14:47:44;30.00;66.40
10231;DHT22;62604;49.432;8.680;2023-08-17T14:50:11;30.10;66.80
10231;DHT22;62604;49.432;8.680;2023-08-17T14:52:41;30.20;66.70
10231;DHT22;62604;49.432;8.680;2023-08-17T14:55:08;30.40;66.90
10231;DHT22;62604;49.432;8.680;2023-08-17T14:57:36;30.20;66.40
10231;DHT22;62604;49.432;8.680;2023-08-17T15:00:04;30.00;66.60
10231;DHT22;62604;49.432;8.680;2023-08-17T15:02:31;30.20;67.10
10231;DHT22;62604;49.432;8.680;2023-08-17T15:04:58;30.30;66.20
10231;DHT22;62604;49.432;8.680;2023-08-17T15:07:24;30.10;64.70
10231;DHT22;62604;49.432;8.680;2023-08-17T15:09:53;29.80;64.80
10231;DHT22;62604;49.432;8.680;2023-08-17T15:12:38;29.60;66.40
10231;DHT22;62604;49.432;8.680;2023-08-17T15:15:08;29.50;67.40
10231;DHT22;62604;49.432;8.680;2023-08-17T15:17:35;29.40;68.10
10231;DHT22;62604;49.432;8.680;2023-08-17T15:20:03;29.40;67.60
10231;DHT22;62604;49.432;8.680;2023-08-17T15:22:30;29.30;68.50
10231;DHT22;62604;49.432;8.680;2023-08-17T15:24:58;29.30;68.40
10231;DHT22;62604;49.432;8.680;2023-08-17T15:27:26;29.30;69.20
10231;DHT22;62604;49.432;8.680;2023-08-17T15:29:53;29.40;68.70
10231;DHT22;62604;49.432;8.680;2023-08-17T15:32:20;29.50;66.30
10231;DHT22;62604;49.432;8.680;2023-08-17T15:34:47;29.50;65.90
10231;DHT22;62604;49.432;8.680;2023-08-17T15:37:14;29.60;65.40